Terminal Aerodrome Forecast
Issued by NWS

Current Version | Previous Version | Text Only | Print | Product List | Glossary Off
Versions: 1 2 3 4 5 6 7 8 9 10 11 12 13 14 15 16 17 18 19 20 21 22 23 24 25

000
FTUS41 KPBZ 180308 CCA
TAFMGW
TAF COR
KMGW 180308Z 1803/1824 25005KT 3SM BR OVC008
      TEMPO 1803/1807 1/2SM FG OVC001
     FM180700 26007KT P6SM BKN015
     FM181200 30008KT P6SM OVC025
     FM181500 24005KT P6SM SCT035=

USA.gov is the U.S. government's official web portal to all federal, state and local government web resources and services.